Time;durP1;ratioP1;P1;durP2;ratioP2;P2;SDS_P1;SDS_P2;PMS_P1;PMS_P2;Temp;Humidity;BMP_temperature;BMP_pressure;BME280_temperature;BME280_humidity;BME280_pressure;Samples;Min_cycle;Max_cycle;Signal;HPM_P1;HPM_P2
2021/04/21 00:02:21;;;;;;;30.05;21.00;;;;;;;6.40;77.37;98443.30;239558;1196;23134;-76
2021/04/21 00:07:25;;;;;;;29.50;20.60;;;;;;;6.36;77.11;98439.58;239458;1196;23247;-77
2021/04/21 00:12:30;;;;;;;31.93;20.67;;;;;;;6.28;77.28;98436.39;239475;1196;23617;-77
2021/04/21 00:17:37;;;;;;;32.05;21.55;;;;;;;6.24;77.12;98437.99;239319;1196;23143;-77
2021/04/21 00:22:43;;;;;;;30.30;21.33;;;;;;;6.25;77.50;98426.27;239172;1196;23113;-77
2021/04/21 00:27:46;;;;;;;32.73;20.73;;;;;;;6.21;77.52;98430.55;239113;1196;23243;-77
2021/04/21 00:32:52;;;;;;;28.47;21.47;;;;;;;6.25;77.81;98422.82;239427;1199;23280;-76
2021/04/21 00:37:59;;;;;;;27.07;18.27;;;;;;;6.27;77.88;98408.19;239435;1196;23104;-77
2021/04/21 00:43:10;;;;;;;30.80;21.10;;;;;;;6.31;78.43;98417.23;239133;1196;23141;-76
2021/04/21 00:48:12;;;;;;;31.30;22.03;;;;;;;6.34;77.85;98406.05;239212;1196;23120;-76
2021/04/21 00:53:37;;;;;;;31.03;20.80;;;;;;;6.39;78.36;98401.78;239556;1196;23567;-77
2021/04/21 00:59:18;;;;;;;27.37;19.87;;;;;;;6.42;78.32;98403.90;239142;1199;23267;-77
2021/04/21 01:04:22;;;;;;;27.33;20.10;;;;;;;6.41;78.36;98407.61;239186;1196;23129;-77
2021/04/21 01:09:32;;;;;;;27.85;19.33;;;;;;;6.41;78.37;98402.30;239523;1199;23135;-77
2021/04/21 01:14:40;;;;;;;29.80;20.10;;;;;;;6.42;78.32;98409.22;239333;1196;23775;-77
2021/04/21 01:19:58;;;;;;;29.77;20.73;;;;;;;6.43;78.75;98406.28;239171;1196;26830;-77
2021/04/21 01:25:15;;;;;;;39.13;24.50;;;;;;;6.45;78.31;98406.02;239183;1196;23261;-77
2021/04/21 01:30:23;;;;;;;38.57;24.53;;;;;;;6.45;78.61;98408.67;239516;1196;23273;-77
2021/04/21 01:35:27;;;;;;;39.20;26.10;;;;;;;6.42;78.44;98403.90;239561;1196;23102;-77
2021/04/21 01:40:39;;;;;;;46.10;31.15;;;;;;;6.37;78.18;98403.93;239289;1196;23158;-78
2021/04/21 01:45:47;;;;;;;55.47;33.47;;;;;;;6.31;78.64;98406.59;239404;1196;23134;-77
2021/04/21 01:50:52;;;;;;;61.80;38.23;;;;;;;6.25;78.54;98401.54;239428;1199;27233;-77
2021/04/21 01:56:01;;;;;;;69.40;41.90;;;;;;;6.20;78.69;98399.70;239447;1196;23098;-77
2021/04/21 02:01:20;;;;;;;70.35;38.60;;;;;;;6.18;79.02;98407.13;239212;1197;23117;-77
2021/04/21 02:06:32;;;;;;;77.60;43.50;;;;;;;6.17;78.68;98402.90;239168;1199;28190;-77
2021/04/21 02:11:39;;;;;;;77.45;42.70;;;;;;;6.18;78.81;98399.16;239472;1196;23113;-78
2021/04/21 02:17:16;;;;;;;71.37;43.33;;;;;;;6.18;79.28;98396.49;239537;1199;27553;-77
2021/04/21 02:22:38;;;;;;;70.80;37.70;;;;;;;6.13;78.66;98399.17;239526;1196;23167;-77
2021/04/21 02:27:45;;;;;;;68.00;38.90;;;;;;;6.08;78.81;98391.20;239413;1196;23118;-77
2021/04/21 02:33:13;;;;;;;62.47;38.33;;;;;;;6.05;79.43;98400.50;239303;1197;23118;-77
2021/04/21 02:38:45;;;;;;;75.63;43.53;;;;;;;6.03;79.64;98397.33;239501;1196;23114;-77
2021/04/21 02:44:12;;;;;;;70.97;40.87;;;;;;;6.02;79.49;98394.94;239172;1196;23115;-77
2021/04/21 02:49:54;;;;;;;85.53;46.50;;;;;;;5.97;79.48;98390.38;239054;1196;23141;-77
2021/04/21 02:55:26;;;;;;;77.70;46.25;;;;;;;5.94;79.74;98401.55;239815;1195;23123;-77
2021/04/21 03:00:49;;;;;;;73.37;42.57;;;;;;;5.91;80.15;98394.89;239493;1196;23119;-76
2021/04/21 03:06:05;;;;;;;78.13;45.70;;;;;;;5.96;80.00;98402.06;239223;1196;23170;-77
2021/04/21 03:11:26;;;;;;;69.53;42.60;;;;;;;6.03;79.67;98412.47;239178;1196;26272;-77
2021/04/21 03:16:34;;;;;;;67.63;40.95;;;;;;;6.05;80.28;98403.16;239312;1196;23148;-76
2021/04/21 03:21:42;;;;;;;76.77;45.03;;;;;;;6.07;80.10;98387.75;239437;1196;23136;-77
2021/04/21 03:26:48;;;;;;;75.23;45.10;;;;;;;6.19;80.12;98387.45;239168;1196;26514;-77
2021/04/21 03:31:54;;;;;;;58.93;37.50;;;;;;;6.28;79.74;98408.98;239212;1196;23204;-76
2021/04/21 03:36:58;;;;;;;62.77;40.77;;;;;;;6.34;79.88;98411.37;239839;1196;26236;-77
2021/04/21 03:42:01;;;;;;;67.25;41.90;;;;;;;6.40;79.90;98416.69;239551;1194;23216;-77
2021/04/21 03:47:04;;;;;;;60.33;36.40;;;;;;;6.44;79.66;98415.88;239548;1196;24722;-76
2021/04/21 03:52:09;;;;;;;59.40;36.87;;;;;;;6.47;79.77;98411.88;239512;1196;23108;-77
2021/04/21 03:57:15;;;;;;;60.23;35.97;;;;;;;6.47;79.85;98403.89;239942;1196;23311;-78
2021/04/21 04:02:22;;;;;;;69.10;42.87;;;;;;;6.45;79.70;98398.84;239804;1196;23268;-79
2021/04/21 04:07:28;;;;;;;68.13;42.87;;;;;;;6.54;80.10;98403.62;239734;1196;25673;-77
2021/04/21 04:12:35;;;;;;;66.53;42.27;;;;;;;6.66;80.76;98399.58;239810;1196;26029;-78
2021/04/21 04:17:40;;;;;;;57.97;36.67;;;;;;;6.71;80.02;98419.27;239551;1196;23144;-78
2021/04/21 04:22:48;;;;;;;53.13;36.03;;;;;;;6.74;79.54;98418.72;239721;1196;23279;-77
2021/04/21 04:27:54;;;;;;;56.60;37.10;;;;;;;6.71;79.67;98417.39;239575;1196;26223;-77
2021/04/21 04:32:58;;;;;;;57.77;36.30;;;;;;;6.68;79.28;98417.94;239600;1196;23107;-77
2021/04/21 04:38:02;;;;;;;60.73;40.97;;;;;;;6.64;80.03;98407.02;239842;1199;23568;-78
2021/04/21 04:43:05;;;;;;;61.43;39.67;;;;;;;6.63;79.76;98400.13;240024;1196;23241;-79
2021/04/21 04:48:16;;;;;;;54.50;35.95;;;;;;;6.71;80.55;98412.06;239974;1196;23123;-79
2021/04/21 04:53:22;;;;;;;51.65;34.80;;;;;;;6.75;79.58;98414.99;240099;1196;23141;-79
2021/04/21 04:58:27;;;;;;;53.27;33.73;;;;;;;6.79;80.43;98416.05;240069;1196;23127;-78
2021/04/21 05:03:35;;;;;;;54.77;35.47;;;;;;;6.78;79.82;98414.45;239943;1195;23118;-78
2021/04/21 05:08:46;;;;;;;50.27;33.87;;;;;;;6.79;80.38;98416.83;240446;1196;23123;-79
2021/04/21 05:13:51;;;;;;;54.20;35.70;;;;;;;6.80;80.65;98421.09;240216;1196;23333;-79
2021/04/21 05:19:09;;;;;;;55.23;37.23;;;;;;;6.91;80.61;98413.88;239999;1196;23088;-79
2021/04/21 05:24:19;;;;;;;56.87;38.57;;;;;;;7.11;80.52;98412.19;239895;1196;23136;-79
2021/04/21 05:29:38;;;;;;;49.15;33.18;;;;;;;7.30;80.34;98407.83;239979;1196;23100;-79
2021/04/21 05:35:22;;;;;;;51.63;34.50;;;;;;;7.60;81.20;98410.57;239932;1199;23115;-80
2021/04/21 05:40:55;;;;;;;45.80;30.15;;;;;;;7.91;80.35;98415.67;239702;1196;23112;-78
2021/04/21 05:46:16;;;;;;;42.67;29.20;;;;;;;8.13;79.49;98423.20;240013;1195;23141;-78
2021/04/21 05:52:01;;;;;;;45.20;29.90;;;;;;;8.24;78.98;98424.72;240454;1196;23172;-79
2021/04/21 05:57:29;;;;;;;57.30;35.93;;;;;;;8.48;79.42;98426.63;239803;1198;23101;-79
2021/04/21 06:02:35;;;;;;;47.60;33.07;;;;;;;8.93;78.76;98423.77;239846;1196;23113;-77
2021/04/21 06:07:38;;;;;;;40.35;28.90;;;;;;;9.46;79.00;98422.78;239703;1196;23126;-77
2021/04/21 06:12:41;;;;;;;46.15;29.65;;;;;;;10.08;78.91;98415.40;239738;1196;23118;-78
2021/04/21 06:17:45;;;;;;;40.75;28.45;;;;;;;10.54;77.12;98421.86;240391;1196;23125;-78
2021/04/21 06:22:59;;;;;;;40.40;27.95;;;;;;;10.82;76.71;98415.73;240826;1196;23157;-79
2021/04/21 06:28:16;;;;;;;43.20;30.67;;;;;;;11.03;75.93;98419.57;241027;1196;23150;-79
2021/04/21 06:33:20;;;;;;;35.20;23.45;;;;;;;11.19;74.89;98432.66;240623;1196;23454;-80
2021/04/21 06:38:27;;;;;;;43.50;29.70;;;;;;;11.25;75.11;98428.79;240923;1196;23535;-78
2021/04/21 06:43:34;;;;;;;33.05;24.20;;;;;;;11.41;73.35;98421.98;240707;1196;26249;-80
2021/04/21 06:48:39;;;;;;;34.45;25.75;;;;;;;11.26;72.97;98431.17;240558;1196;23254;-78
2021/04/21 06:53:46;;;;;;;29.60;21.90;;;;;;;11.12;72.05;98427.69;240986;1196;23131;-79
2021/04/21 06:58:50;;;;;;;31.53;22.13;;;;;;;11.11;72.13;98426.91;240703;1196;23142;-78
2021/04/21 07:04:09;;;;;;;30.40;21.60;;;;;;;11.19;71.50;98429.97;239909;1196;23095;-78
2021/04/21 07:09:17;;;;;;;28.40;17.90;;;;;;;11.31;71.14;98430.25;239945;1196;23121;-77
2021/04/21 07:14:21;;;;;;;23.07;16.10;;;;;;;11.48;70.77;98424.25;244399;1196;23114;-77
2021/04/21 07:19:27;;;;;;;25.87;17.83;;;;;;;11.82;70.25;98433.66;240073;1196;23167;-78
2021/04/21 07:24:32;;;;;;;23.10;16.70;;;;;;;12.22;69.63;98431.12;239822;1196;25440;-79
2021/04/21 07:29:36;;;;;;;20.35;15.50;;;;;;;12.53;68.58;98435.70;240513;1196;23155;-80
2021/04/21 07:34:39;;;;;;;22.00;14.87;;;;;;;12.71;66.51;98436.56;240388;1196;26374;-78
2021/04/21 07:39:43;;;;;;;22.30;16.60;;;;;;;12.73;66.10;98441.63;240269;1199;23212;-79
2021/04/21 07:44:52;;;;;;;21.93;15.43;;;;;;;12.85;65.51;98439.15;240113;1195;23334;-79
2021/04/21 07:49:54;;;;;;;21.90;17.40;;;;;;;12.84;64.91;98443.74;240288;1196;23244;-78
2021/04/21 07:55:21;;;;;;;24.87;18.83;;;;;;;12.93;65.72;98442.98;240257;1196;23085;-79
2021/04/21 08:00:29;;;;;;;22.60;15.40;;;;;;;13.12;64.44;98446.20;240132;1195;23094;-79
2021/04/21 08:05:32;;;;;;;21.13;15.63;;;;;;;13.23;63.98;98448.58;240476;1196;23163;-79
2021/04/21 08:10:39;;;;;;;23.50;15.77;;;;;;;13.48;64.75;98449.76;240031;1196;23113;-78
2021/04/21 08:15:43;;;;;;;20.70;15.80;;;;;;;13.71;63.00;98454.98;239557;1196;23176;-77
2021/04/21 08:20:53;;;;;;;20.45;14.65;;;;;;;13.76;63.75;98455.62;240055;1195;23081;-79
2021/04/21 08:26:05;;;;;;;18.93;14.37;;;;;;;14.12;63.98;98459.88;239911;1196;23111;-79
2021/04/21 08:31:08;;;;;;;20.55;14.40;;;;;;;14.40;62.78;98459.50;240342;1196;22928;-79
2021/04/21 08:36:11;;;;;;;21.37;14.80;;;;;;;14.30;62.24;98452.55;240961;1196;23266;-80
2021/04/21 08:41:20;;;;;;;17.00;12.90;;;;;;;14.33;61.46;98454.60;240452;1195;23108;-79
2021/04/21 08:46:23;;;;;;;14.60;10.65;;;;;;;14.31;60.81;98453.34;240289;1196;23115;-78
2021/04/21 08:51:26;;;;;;;10.75;8.45;;;;;;;14.24;61.38;98453.04;240221;1195;23128;-79
2021/04/21 08:56:32;;;;;;;10.00;8.20;;;;;;;14.28;61.21;98460.15;240128;1196;23107;-79
2021/04/21 09:01:36;;;;;;;8.27;7.43;;;;;;;14.43;59.31;98456.16;241094;1195;23142;-79
2021/04/21 09:06:40;;;;;;;8.83;7.50;;;;;;;14.71;59.63;98451.17;240719;1196;23283;-79
2021/04/21 09:11:44;;;;;;;9.73;8.10;;;;;;;15.22;59.35;98453.95;240192;1196;23139;-79
2021/04/21 09:16:46;;;;;;;9.40;8.10;;;;;;;15.62;59.69;98452.72;240220;1196;23122;-79
2021/04/21 09:22:04;;;;;;;9.40;7.60;;;;;;;15.57;55.87;98448.31;239654;1196;23110;-78
2021/04/21 09:27:33;;;;;;;7.70;6.90;;;;;;;15.44;56.07;98452.05;239896;1196;26009;-78
2021/04/21 09:32:54;;;;;;;7.67;6.60;;;;;;;15.44;56.63;98440.48;240487;1195;23122;-78
2021/04/21 09:38:06;;;;;;;8.30;6.70;;;;;;;15.32;55.02;98441.17;240092;1196;23123;-80
2021/04/21 09:43:12;;;;;;;8.07;6.37;;;;;;;15.25;56.05;98433.63;240742;1196;23130;-79
2021/04/21 09:48:23;;;;;;;7.03;6.23;;;;;;;15.35;55.35;98435.93;240066;1196;23118;-78
2021/04/21 09:53:32;;;;;;;7.75;6.70;;;;;;;15.36;55.64;98434.01;240274;1196;23111;-79
2021/04/21 09:58:43;;;;;;;7.40;6.70;;;;;;;15.43;55.45;98431.60;240009;1196;23142;-78
2021/04/21 10:03:47;;;;;;;6.90;6.00;;;;;;;15.63;55.76;98429.23;240284;1196;23121;-79
2021/04/21 10:08:51;;;;;;;7.35;6.35;;;;;;;15.70;53.25;98430.27;239953;1196;23105;-78
2021/04/21 10:13:58;;;;;;;7.55;6.75;;;;;;;15.70;53.36;98411.36;239659;1199;23115;-78
2021/04/21 10:19:00;;;;;;;7.65;6.50;;;;;;;15.82;53.07;98417.97;240458;1196;23467;-76
2021/04/21 10:24:03;;;;;;;9.10;8.20;;;;;;;16.13;53.05;98409.41;240230;1196;23132;-77
2021/04/21 10:29:07;;;;;;;9.60;6.90;;;;;;;16.30;52.46;98402.22;241122;1196;23130;-77
2021/04/21 10:34:09;;;;;;;8.65;7.30;;;;;;;16.32;51.67;98402.69;240215;1196;23110;-77
2021/04/21 10:39:14;;;;;;;7.35;6.65;;;;;;;16.35;51.16;98391.20;239582;1197;23102;-77
2021/04/21 10:44:23;;;;;;;9.95;7.95;;;;;;;16.43;50.54;98385.69;239601;1196;23848;-76
2021/04/21 10:49:42;;;;;;;8.53;6.87;;;;;;;16.39;51.20;98381.30;239975;1199;23137;-76
2021/04/21 10:54:46;;;;;;;7.90;6.37;;;;;;;16.13;50.53;98379.69;240187;1196;23957;-77
2021/04/21 11:00:28;;;;;;;7.70;6.60;;;;;;;16.24;50.34;98364.63;239367;1196;26271;-73
2021/04/21 11:05:39;;;;;;;9.20;6.70;;;;;;;16.17;50.88;98363.58;239228;1196;23108;-73
2021/04/21 11:11:05;;;;;;;7.30;6.10;;;;;;;16.21;51.70;98353.69;239642;1196;23114;-73
2021/04/21 11:16:11;;;;;;;8.25;6.70;;;;;;;16.49;49.92;98345.70;239506;1200;23119;-73
2021/04/21 11:21:19;;;;;;;8.70;5.90;;;;;;;16.51;49.70;98356.98;239414;1196;23389;-78
2021/04/21 11:26:28;;;;;;;7.65;6.35;;;;;;;16.67;49.92;98340.08;239734;1198;23138;-77
2021/04/21 11:31:44;;;;;;;8.43;6.63;;;;;;;16.99;48.39;98343.00;239467;1196;23247;-77
2021/04/21 11:36:57;;;;;;;6.55;5.25;;;;;;;17.22;48.23;98341.37;239522;1196;23196;-75
2021/04/21 11:42:17;;;;;;;6.90;6.20;;;;;;;17.62;47.40;98337.81;239476;1196;23119;-77
2021/04/21 11:47:46;;;;;;;7.95;5.10;;;;;;;18.12;45.25;98326.74;239514;1196;23112;-79
2021/04/21 11:52:57;;;;;;;6.05;5.40;;;;;;;18.61;45.40;98344.56;239577;1196;23228;-77
2021/04/21 11:58:04;;;;;;;5.85;5.25;;;;;;;18.71;44.49;98362.23;239441;1196;23119;-77
2021/04/21 12:03:17;;;;;;;4.90;3.80;;;;;;;18.12;44.46;98351.91;239672;1196;23176;-76
2021/04/21 12:08:22;;;;;;;5.60;3.80;;;;;;;17.32;45.00;98356.34;239714;1196;26265;-77
2021/04/21 12:13:27;;;;;;;5.13;4.40;;;;;;;16.71;46.11;98340.98;239354;1195;23130;-76
2021/04/21 12:18:38;;;;;;;5.53;4.63;;;;;;;16.63;47.12;98339.17;239681;1196;23137;-76
2021/04/21 12:23:43;;;;;;;;;;;;;;;16.69;47.80;98330.50;239647;1197;23121;-76
2021/04/21 12:28:57;;;;;;;6.80;5.23;;;;;;;16.79;48.23;98333.85;239615;1196;21740;-76
2021/04/21 12:34:02;;;;;;;6.00;5.40;;;;;;;16.64;48.29;98332.65;239666;1199;26179;-76
2021/04/21 12:39:15;;;;;;;6.45;5.25;;;;;;;16.22;47.26;98368.78;239439;1196;23107;-76
2021/04/21 12:44:26;;;;;;;4.80;4.30;;;;;;;15.12;48.04;98353.72;239423;1194;23096;-76
2021/04/21 12:49:34;;;;;;;6.77;4.80;;;;;;;13.99;50.22;98374.66;239840;1196;25222;-75
2021/04/21 12:54:45;;;;;;;5.60;4.97;;;;;;;13.03;52.24;98399.66;239572;1196;26002;-76
2021/04/21 12:59:58;;;;;;;6.25;5.00;;;;;;;12.26;56.26;98394.49;239599;1196;23119;-76
2021/04/21 13:05:01;;;;;;;6.90;4.80;;;;;;;11.73;58.22;98368.42;240911;1194;23121;-78
2021/04/21 13:10:13;;;;;;;4.80;4.40;;;;;;;11.67;61.16;98365.08;240472;1196;24275;-79
2021/04/21 13:15:23;;;;;;;7.73;6.10;;;;;;;11.85;62.84;98368.66;240476;1196;23317;-80
2021/04/21 13:21:09;;;;;;;10.63;7.70;;;;;;;12.01;63.73;98360.26;240407;1199;23142;-79
2021/04/21 13:26:15;;;;;;;6.40;5.35;;;;;;;12.31;63.49;98369.39;239343;1196;23126;-78
2021/04/21 13:31:27;;;;;;;6.95;5.60;;;;;;;12.44;62.30;98363.13;240314;1196;23115;-80
2021/04/21 13:36:30;;;;;;;7.07;6.37;;;;;;;12.57;62.76;98352.59;240021;1196;23128;-79
2021/04/21 13:41:33;;;;;;;7.70;6.20;;;;;;;12.63;63.38;98348.65;239515;1196;23111;-78
2021/04/21 13:46:37;;;;;;;6.60;5.70;;;;;;;12.61;62.67;98340.90;240183;1196;23103;-79
2021/04/21 13:51:40;;;;;;;5.90;5.30;;;;;;;12.63;62.35;98349.45;240446;1196;23118;-79
2021/04/21 13:56:43;;;;;;;6.57;5.03;;;;;;;12.75;62.56;98342.69;242002;1196;23086;-79
2021/04/21 14:01:46;;;;;;;5.83;4.80;;;;;;;12.96;62.25;98340.19;240849;1195;26002;-79
2021/04/21 14:06:49;;;;;;;8.80;5.50;;;;;;;13.13;61.56;98345.56;241536;1194;23142;-80
2021/04/21 14:11:53;;;;;;;6.40;5.55;;;;;;;13.31;61.47;98335.61;240868;1196;23121;-79
2021/04/21 14:16:56;;;;;;;11.00;6.40;;;;;;;13.41;60.82;98323.77;240796;1196;23227;-79
2021/04/21 14:22:00;;;;;;;6.50;5.10;;;;;;;13.57;60.41;98325.97;241835;1196;23160;-79
2021/04/21 14:27:03;;;;;;;5.93;4.90;;;;;;;13.54;59.80;98321.23;241231;1196;25987;-79
2021/04/21 14:32:05;;;;;;;7.75;4.60;;;;;;;13.71;60.59;98315.02;241155;1196;23557;-80
2021/04/21 14:37:08;;;;;;;5.00;3.70;;;;;;;13.76;59.33;98323.71;241033;1196;23144;-80
2021/04/21 14:42:11;;;;;;;5.60;4.30;;;;;;;13.84;59.29;98312.14;240978;1195;23115;-80
2021/04/21 14:47:13;;;;;;;4.40;3.70;;;;;;;13.90;58.80;98325.44;240765;1196;23119;-80
2021/04/21 14:52:16;;;;;;;5.83;4.20;;;;;;;13.94;57.27;98320.99;240974;1195;23131;-81
2021/04/21 14:57:20;;;;;;;5.45;4.65;;;;;;;14.02;58.44;98318.27;240943;1196;23114;-80
2021/04/21 15:02:23;;;;;;;4.85;4.10;;;;;;;14.34;58.52;98321.47;240857;1196;24386;-80
2021/04/21 15:07:26;;;;;;;7.50;5.25;;;;;;;14.59;58.07;98320.87;240714;1195;23124;-79
2021/04/21 15:12:29;;;;;;;6.00;4.90;;;;;;;14.73;57.14;98326.83;240856;1194;23125;-80
2021/04/21 15:17:33;;;;;;;8.03;5.80;;;;;;;14.89;57.29;98327.06;240885;1196;23269;-80
2021/04/21 15:22:40;;;;;;;5.97;4.97;;;;;;;15.01;56.04;98323.64;240814;1196;23132;-81
2021/04/21 15:27:44;;;;;;;5.93;4.80;;;;;;;15.07;55.30;98325.04;240862;1195;23255;-79
2021/04/21 15:32:47;;;;;;;7.10;5.00;;;;;;;15.26;55.48;98324.55;240687;1195;23190;-80
2021/04/21 15:37:51;;;;;;;5.75;4.45;;;;;;;15.40;54.40;98321.58;240668;1196;23126;-79
2021/04/21 15:42:55;;;;;;;7.20;5.45;;;;;;;15.43;53.83;98312.84;240444;1195;23111;-80
2021/04/21 15:47:57;;;;;;;6.10;4.80;;;;;;;15.30;53.52;98319.30;240241;1195;23238;-80
2021/04/21 15:53:01;;;;;;;8.40;5.43;;;;;;;15.08;53.59;98321.20;240320;1195;23118;-80
2021/04/21 15:58:03;;;;;;;6.60;5.20;;;;;;;14.80;53.49;98318.23;240727;1195;23138;-80
2021/04/21 16:03:07;;;;;;;11.05;6.10;;;;;;;14.52;53.82;98322.18;240633;1196;23122;-79
2021/04/21 16:08:09;;;;;;;9.00;6.25;;;;;;;14.34;54.94;98321.47;240867;1196;23260;-79
2021/04/21 16:13:19;;;;;;;8.35;6.50;;;;;;;14.51;55.81;98317.90;240771;1196;23142;-81
2021/04/21 16:18:22;;;;;;;9.85;6.25;;;;;;;14.65;54.74;98314.22;240510;1196;23151;-80
2021/04/21 16:23:25;;;;;;;13.00;7.00;;;;;;;14.61;54.67;98316.73;240882;1195;23140;-80
2021/04/21 16:28:27;;;;;;;7.20;5.75;;;;;;;14.47;53.63;98319.66;240782;1196;23321;-80
2021/04/21 16:33:30;;;;;;;8.40;6.00;;;;;;;14.39;54.64;98317.80;240305;1195;23136;-79
2021/04/21 16:38:34;;;;;;;11.30;6.70;;;;;;;14.40;55.11;98318.61;240807;1196;23275;-79
2021/04/21 16:43:37;;;;;;;9.20;7.00;;;;;;;14.40;54.97;98310.52;240651;1196;23121;-79
2021/04/21 16:49:00;;;;;;;16.00;7.07;;;;;;;14.28;54.81;98305.80;240755;1196;23156;-80
2021/04/21 16:54:05;;;;;;;9.70;7.00;;;;;;;14.12;54.66;98311.73;240669;1196;23138;-79
2021/04/21 16:59:07;;;;;;;8.70;6.60;;;;;;;13.98;55.36;98313.85;239960;1196;23173;-79
2021/04/21 17:04:12;;;;;;;12.75;7.60;;;;;;;13.82;55.19;98318.95;240817;1194;23150;-79
2021/04/21 17:09:15;;;;;;;8.20;6.75;;;;;;;13.56;55.35;98319.02;240614;1196;23132;-79
2021/04/21 17:14:18;;;;;;;9.00;6.80;;;;;;;13.28;56.05;98324.70;240871;1199;23137;-80
2021/04/21 17:19:21;;;;;;;11.10;7.20;;;;;;;13.04;56.32;98330.53;240414;1196;23090;-78
2021/04/21 17:24:23;;;;;;;12.97;7.17;;;;;;;12.82;57.16;98333.04;240552;1196;23210;-79
2021/04/21 17:29:26;;;;;;;9.95;7.20;;;;;;;12.62;57.24;98328.28;240604;1196;23220;-78
2021/04/21 17:34:30;;;;;;;11.00;7.30;;;;;;;12.40;57.71;98329.16;239946;1195;23108;-79
2021/04/21 17:39:33;;;;;;;11.55;7.40;;;;;;;12.20;58.62;98333.17;239936;1196;23114;-78
2021/04/21 17:44:37;;;;;;;11.60;8.05;;;;;;;12.02;58.60;98330.42;239731;1196;23288;-79
2021/04/21 17:49:39;;;;;;;11.17;8.00;;;;;;;11.88;59.36;98341.20;240544;1195;23148;-79
2021/04/21 17:54:43;;;;;;;14.53;9.97;;;;;;;11.78;60.36;98346.81;240569;1195;23120;-78
2021/04/21 17:59:46;;;;;;;16.50;10.80;;;;;;;11.71;60.75;98346.45;240238;1196;23117;-78
2021/04/21 18:04:48;;;;;;;17.60;10.40;;;;;;;11.66;60.79;98343.92;240616;1196;23102;-79
2021/04/21 18:09:52;;;;;;;15.60;8.87;;;;;;;11.61;60.91;98360.91;240185;1196;23116;-78
2021/04/21 18:14:55;;;;;;;15.00;10.00;;;;;;;11.57;60.73;98357.25;240174;1196;23125;-78
2021/04/21 18:19:57;;;;;;;16.80;10.90;;;;;;;11.54;60.88;98372.09;240566;1196;23107;-78
2021/04/21 18:25:01;;;;;;;19.27;12.53;;;;;;;11.49;61.09;98372.20;240259;1196;23089;-79
2021/04/21 18:30:07;;;;;;;21.97;14.17;;;;;;;11.39;61.25;98367.08;240551;1196;23135;-78
2021/04/21 18:35:12;;;;;;;23.80;14.93;;;;;;;11.29;61.78;98368.89;240515;1195;23211;-79
2021/04/21 18:40:15;;;;;;;20.90;13.65;;;;;;;11.18;61.74;98372.08;239979;1195;23141;-79
2021/04/21 18:45:20;;;;;;;25.60;14.80;;;;;;;11.02;62.25;98360.91;240618;1199;23346;-79
2021/04/21 18:50:24;;;;;;;22.73;14.67;;;;;;;10.84;63.05;98370.66;240230;1196;23112;-79
2021/04/21 18:55:28;;;;;;;19.60;13.75;;;;;;;10.68;63.35;98365.61;240386;1194;23434;-78
2021/04/21 19:00:33;;;;;;;19.45;13.60;;;;;;;10.56;63.87;98378.70;240414;1196;23131;-79
2021/04/21 19:05:36;;;;;;;21.73;13.43;;;;;;;10.48;64.44;98376.72;239985;1196;23115;-79
2021/04/21 19:10:40;;;;;;;20.10;13.87;;;;;;;10.39;64.60;98382.76;240250;1196;23078;-78
2021/04/21 19:15:44;;;;;;;24.20;14.50;;;;;;;10.27;65.84;98377.88;240850;1194;23279;-79
2021/04/21 19:20:49;;;;;;;21.10;13.90;;;;;;;10.20;66.32;98368.63;240338;1196;23210;-78
2021/04/21 19:25:53;;;;;;;24.80;15.90;;;;;;;10.13;66.79;98360.20;240165;1195;26077;-79
2021/04/21 19:30:55;;;;;;;20.67;13.30;;;;;;;10.06;66.84;98366.73;240200;1196;23122;-78
2021/04/21 19:35:59;;;;;;;22.30;16.00;;;;;;;10.02;67.23;98368.41;239854;1196;23176;-78
2021/04/21 19:41:04;;;;;;;20.57;14.97;;;;;;;9.95;67.57;98370.68;240015;1196;23119;-79
2021/04/21 19:46:06;;;;;;;20.60;14.10;;;;;;;9.90;67.79;98358.16;240162;1196;23124;-78
2021/04/21 19:51:10;;;;;;;21.70;14.60;;;;;;;9.90;68.24;98357.38;240313;1195;23103;-78
2021/04/21 19:56:14;;;;;;;27.20;17.70;;;;;;;9.88;67.98;98360.35;240300;1195;23125;-78
2021/04/21 20:01:18;;;;;;;28.80;18.60;;;;;;;9.83;68.35;98362.33;240032;1196;23131;-78
2021/04/21 20:06:22;;;;;;;28.73;18.47;;;;;;;9.81;68.99;98367.97;239691;1199;23213;-78
2021/04/21 20:11:24;;;;;;;39.10;23.80;;;;;;;9.88;69.20;98376.41;239710;1196;23247;-78
2021/04/21 20:16:27;;;;;;;40.90;24.97;;;;;;;9.92;69.21;98377.41;240065;1199;23141;-78
2021/04/21 20:21:30;;;;;;;38.95;24.85;;;;;;;9.96;69.40;98387.52;240031;1197;23117;-78
2021/04/21 20:26:37;;;;;;;39.03;24.60;;;;;;;9.99;69.51;98379.71;240058;1196;23119;-78
2021/04/21 20:31:39;;;;;;;37.40;22.40;;;;;;;10.03;69.80;98379.91;239999;1199;23244;-79
2021/04/21 20:36:42;;;;;;;42.57;23.87;;;;;;;10.06;69.60;98382.02;239752;1196;23283;-78
2021/04/21 20:41:45;;;;;;;34.55;21.90;;;;;;;10.12;69.28;98380.83;239995;1199;23263;-78
2021/04/21 20:46:47;;;;;;;34.80;21.57;;;;;;;10.16;69.44;98379.15;239690;1196;23128;-78
2021/04/21 20:51:50;;;;;;;36.50;22.55;;;;;;;10.19;69.39;98369.73;239870;1196;23117;-79
2021/04/21 20:56:53;;;;;;;38.15;23.15;;;;;;;10.22;69.47;98371.81;239633;1199;23144;-79
2021/04/21 21:01:56;;;;;;;39.73;23.40;;;;;;;10.25;69.70;98387.28;239619;1196;23124;-79
2021/04/21 21:06:59;;;;;;;41.20;24.70;;;;;;;10.28;69.65;98397.39;240001;1196;23096;-79
2021/04/21 21:12:02;;;;;;;35.70;21.90;;;;;;;10.31;69.61;98404.05;240182;1197;23118;-78
2021/04/21 21:17:05;;;;;;;28.43;18.33;;;;;;;10.26;70.07;98403.05;239822;1196;23113;-78
2021/04/21 21:22:09;;;;;;;19.50;15.00;;;;;;;10.21;70.40;98386.28;239766;1196;23144;-78
2021/04/21 21:27:11;;;;;;;23.50;15.17;;;;;;;10.14;70.75;98396.58;239677;1199;23111;-78
2021/04/21 21:32:14;;;;;;;15.40;10.20;;;;;;;10.13;70.80;98401.16;239670;1196;23134;-79
2021/04/21 21:37:17;;;;;;;11.57;9.40;;;;;;;10.12;70.43;98396.88;239931;1196;23130;-80
2021/04/21 21:42:23;;;;;;;10.10;8.37;;;;;;;10.02;70.41;98405.88;239734;1196;24766;-78
2021/04/21 21:47:26;;;;;;;11.87;8.77;;;;;;;9.82;71.20;98420.39;239992;1196;23113;-79
2021/04/21 21:52:29;;;;;;;10.30;8.90;;;;;;;9.53;72.82;98424.02;240359;1196;23145;-81
2021/04/21 21:57:31;;;;;;;12.63;8.63;;;;;;;9.24;73.40;98400.10;240596;1196;23173;-79
2021/04/21 22:02:33;;;;;;;10.80;8.40;;;;;;;9.01;74.27;98399.88;239967;1196;23127;-78
2021/04/21 22:07:38;;;;;;;11.90;8.35;;;;;;;8.87;74.48;98397.11;239965;1196;23247;-80
2021/04/21 22:12:41;;;;;;;9.33;7.90;;;;;;;8.78;74.56;98382.78;240094;1196;24707;-78
2021/04/21 22:17:45;;;;;;;8.60;7.55;;;;;;;8.74;74.69;98389.77;240153;1196;26003;-79
2021/04/21 22:22:52;;;;;;;10.00;7.75;;;;;;;8.70;75.13;98397.58;240174;1196;25978;-79
2021/04/21 22:27:55;;;;;;;8.80;7.35;;;;;;;8.67;74.87;98390.11;239635;1195;23135;-78
2021/04/21 22:32:59;;;;;;;10.83;9.00;;;;;;;8.63;75.04;98385.63;239853;1196;23136;-78
2021/04/21 22:38:05;;;;;;;11.90;8.70;;;;;;;8.60;75.28;98380.87;239484;1196;23080;-78
2021/04/21 22:43:08;;;;;;;11.67;9.53;;;;;;;8.63;75.46;98380.30;239755;1195;24509;-78
2021/04/21 22:48:10;;;;;;;8.53;7.63;;;;;;;8.66;75.85;98385.88;240161;1196;23138;-78
2021/04/21 22:53:15;;;;;;;10.20;8.83;;;;;;;8.56;75.14;98408.14;239670;1196;23112;-78
2021/04/21 22:58:21;;;;;;;15.93;12.37;;;;;;;8.53;75.69;98408.72;239745;1196;23111;-78
2021/04/21 23:03:25;;;;;;;20.17;13.27;;;;;;;8.55;75.77;98406.55;239640;1196;23334;-78
2021/04/21 23:08:28;;;;;;;18.50;12.00;;;;;;;8.63;76.32;98390.97;239766;1199;23312;-78
2021/04/21 23:13:30;;;;;;;16.13;11.90;;;;;;;8.74;76.10;98371.08;239876;1197;23236;-78
2021/04/21 23:18:33;;;;;;;18.50;12.95;;;;;;;8.72;75.96;98381.27;240151;1196;23279;-79
2021/04/21 23:23:37;;;;;;;17.05;12.60;;;;;;;8.67;76.28;98381.31;239957;1196;23117;-78
2021/04/21 23:28:39;;;;;;;21.70;14.57;;;;;;;8.60;76.16;98376.31;239734;1196;23107;-78
2021/04/21 23:33:45;;;;;;;18.25;12.85;;;;;;;8.60;76.92;98375.53;240218;1196;23084;-78
2021/04/21 23:38:47;;;;;;;23.53;16.80;;;;;;;8.53;77.18;98373.20;240164;1196;23227;-79